sensor_id;sensor_type;location;lat;lon;timestamp;temperature;humidity
3566;DHT22;1797;51.844;7.684;2022-08-21T00:01:17;15.90;1.00
3566;DHT22;1797;51.844;7.684;2022-08-21T00:03:43;15.90;1.00
3566;DHT22;1797;51.844;7.684;2022-08-21T00:06:09;15.80;1.00
3566;DHT22;1797;51.844;7.684;2022-08-21T00:08:34;15.80;1.00
3566;DHT22;1797;51.844;7.684;2022-08-21T00:11:00;15.80;1.00
3566;DHT22;1797;51.844;7.684;2022-08-21T00:13:26;15.80;1.00
3566;DHT22;1797;51.844;7.684;2022-08-21T00:15:51;15.70;1.00
3566;DHT22;1797;51.844;7.684;2022-08-21T00:18:18;15.70;1.00
3566;DHT22;1797;51.844;7.684;2022-08-21T00:20:44;15.70;99.90
3566;DHT22;1797;51.844;7.684;2022-08-21T00:23:11;15.70;99.90
3566;DHT22;1797;51.844;7.684;2022-08-21T00:25:37;15.70;1.00
3566;DHT22;1797;51.844;7.684;2022-08-21T00:28:03;15.60;1.00
3566;DHT22;1797;51.844;7.684;2022-08-21T00:30:30;15.70;99.90
3566;DHT22;1797;51.844;7.684;2022-08-21T00:32:56;15.70;99.90
3566;DHT22;1797;51.844;7.684;2022-08-21T00:35:26;15.70;99.90
3566;DHT22;1797;51.844;7.684;2022-08-21T00:37:52;15.60;99.90
3566;DHT22;1797;51.844;7.684;2022-08-21T00:40:23;15.60;99.90
3566;DHT22;1797;51.844;7.684;2022-08-21T00:42:50;15.60;99.90
3566;DHT22;1797;51.844;7.684;2022-08-21T00:45:16;15.70;99.90
3566;DHT22;1797;51.844;7.684;2022-08-21T00:47:41;15.70;99.90
3566;DHT22;1797;51.844;7.684;2022-08-21T00:50:09;15.70;99.90
3566;DHT22;1797;51.844;7.684;2022-08-21T00:52:36;15.70;98.50
3566;DHT22;1797;51.844;7.684;2022-08-21T00:55:03;15.70;99.90
3566;DHT22;1797;51.844;7.684;2022-08-21T00:57:35;15.70;99.90
3566;DHT22;1797;51.844;7.684;2022-08-21T01:00:06;15.70;99.90
3566;DHT22;1797;51.844;7.684;2022-08-21T01:02:32;15.60;99.90
3566;DHT22;1797;51.844;7.684;2022-08-21T01:04:58;15.60;99.90
3566;DHT22;1797;51.844;7.684;2022-08-21T01:07:24;15.60;99.90
3566;DHT22;1797;51.844;7.684;2022-08-21T01:09:50;15.60;99.90
3566;DHT22;1797;51.844;7.684;2022-08-21T01:12:17;15.60;99.90
3566;DHT22;1797;51.844;7.684;2022-08-21T01:14:43;15.60;99.90
3566;DHT22;1797;51.844;7.684;2022-08-21T01:17:11;15.60;99.90
3566;DHT22;1797;51.844;7.684;2022-08-21T01:19:38;15.70;99.90
3566;DHT22;1797;51.844;7.684;2022-08-21T01:22:05;15.70;99.90
3566;DHT22;1797;51.844;7.684;2022-08-21T01:24:31;15.80;99.90
3566;DHT22;1797;51.844;7.684;2022-08-21T01:26:57;15.80;99.90
3566;DHT22;1797;51.844;7.684;2022-08-21T01:29:39;15.80;99.90
3566;DHT22;1797;51.844;7.684;2022-08-21T01:32:10;15.80;99.90
3566;DHT22;1797;51.844;7.684;2022-08-21T01:34:38;15.80;99.90
3566;DHT22;1797;51.844;7.684;2022-08-21T01:37:04;15.70;99.90
3566;DHT22;1797;51.844;7.684;2022-08-21T01:39:31;15.70;99.90
3566;DHT22;1797;51.844;7.684;2022-08-21T01:41:56;15.60;99.90
3566;DHT22;1797;51.844;7.684;2022-08-21T01:44:23;15.60;99.90
3566;DHT22;1797;51.844;7.684;2022-08-21T01:46:49;15.60;99.90
3566;DHT22;1797;51.844;7.684;2022-08-21T01:49:16;15.60;99.90
3566;DHT22;1797;51.844;7.684;2022-08-21T01:51:41;15.60;99.90
3566;DHT22;1797;51.844;7.684;2022-08-21T01:54:07;15.60;99.90
3566;DHT22;1797;51.844;7.684;2022-08-21T01:56:46;15.60;99.90
3566;DHT22;1797;51.844;7.684;2022-08-21T01:59:12;15.60;99.90
3566;DHT22;1797;51.844;7.684;2022-08-21T02:01:38;15.60;99.90
3566;DHT22;1797;51.844;7.684;2022-08-21T02:04:09;15.60;99.90
3566;DHT22;1797;51.844;7.684;2022-08-21T02:06:35;15.60;99.90
3566;DHT22;1797;51.844;7.684;2022-08-21T02:09:02;15.60;99.90
3566;DHT22;1797;51.844;7.684;2022-08-21T02:11:28;15.60;99.90
3566;DHT22;1797;51.844;7.684;2022-08-21T02:13:53;15.70;99.90
3566;DHT22;1797;51.844;7.684;2022-08-21T02:16:19;15.70;99.90
3566;DHT22;1797;51.844;7.684;2022-08-21T02:18:45;15.60;99.90
3566;DHT22;1797;51.844;7.684;2022-08-21T02:21:11;15.60;99.90
3566;DHT22;1797;51.844;7.684;2022-08-21T02:23:36;15.60;99.90
3566;DHT22;1797;51.844;7.684;2022-08-21T02:26:04;15.60;99.90
3566;DHT22;1797;51.844;7.684;2022-08-21T02:28:31;15.60;99.90
3566;DHT22;1797;51.844;7.684;2022-08-21T02:30:57;15.60;99.90
3566;DHT22;1797;51.844;7.684;2022-08-21T02:33:23;15.50;99.90
3566;DHT22;1797;51.844;7.684;2022-08-21T02:35:49;15.50;99.90
3566;DHT22;1797;51.844;7.684;2022-08-21T02:38:20;15.50;99.90
3566;DHT22;1797;51.844;7.684;2022-08-21T02:40:48;15.50;99.90
3566;DHT22;1797;51.844;7.684;2022-08-21T02:43:15;15.50;99.90
3566;DHT22;1797;51.844;7.684;2022-08-21T02:45:42;15.40;99.90
3566;DHT22;1797;51.844;7.684;2022-08-21T02:48:11;15.40;99.90
3566;DHT22;1797;51.844;7.684;2022-08-21T02:50:40;15.30;99.90
3566;DHT22;1797;51.844;7.684;2022-08-21T02:53:06;15.20;99.90
3566;DHT22;1797;51.844;7.684;2022-08-21T02:55:33;15.20;99.90
3566;DHT22;1797;51.844;7.684;2022-08-21T02:58:00;15.10;99.90
3566;DHT22;1797;51.844;7.684;2022-08-21T03:00:29;15.00;99.90
3566;DHT22;1797;51.844;7.684;2022-08-21T03:02:55;15.00;99.90
3566;DHT22;1797;51.844;7.684;2022-08-21T03:05:22;14.90;99.90
3566;DHT22;1797;51.844;7.684;2022-08-21T03:07:49;14.80;99.90
3566;DHT22;1797;51.844;7.684;2022-08-21T03:10:15;14.80;99.90
3566;DHT22;1797;51.844;7.684;2022-08-21T03:12:41;14.70;99.90
3566;DHT22;1797;51.844;7.684;2022-08-21T03:15:09;14.70;99.90
3566;DHT22;1797;51.844;7.684;2022-08-21T03:17:36;14.60;99.90
3566;DHT22;1797;51.844;7.684;2022-08-21T03:20:03;14.60;99.90
3566;DHT22;1797;51.844;7.684;2022-08-21T03:22:29;14.50;99.90
3566;DHT22;1797;51.844;7.684;2022-08-21T03:24:54;14.50;99.90
3566;DHT22;1797;51.844;7.684;2022-08-21T03:27:20;14.50;99.90
3566;DHT22;1797;51.844;7.684;2022-08-21T03:29:46;14.40;99.90
3566;DHT22;1797;51.844;7.684;2022-08-21T03:32:11;14.40;99.90
3566;DHT22;1797;51.844;7.684;2022-08-21T03:34:37;14.30;99.90
3566;DHT22;1797;51.844;7.684;2022-08-21T03:37:04;14.30;99.90
3566;DHT22;1797;51.844;7.684;2022-08-21T03:39:30;14.20;99.90
3566;DHT22;1797;51.844;7.684;2022-08-21T03:41:56;14.20;99.90
3566;DHT22;1797;51.844;7.684;2022-08-21T03:44:22;14.20;99.90
3566;DHT22;1797;51.844;7.684;2022-08-21T03:46:47;14.10;99.90
3566;DHT22;1797;51.844;7.684;2022-08-21T03:49:14;14.10;99.90
3566;DHT22;1797;51.844;7.684;2022-08-21T03:51:40;14.10;99.90
3566;DHT22;1797;51.844;7.684;2022-08-21T03:54:05;14.10;99.90
3566;DHT22;1797;51.844;7.684;2022-08-21T03:56:31;14.00;99.90
3566;DHT22;1797;51.844;7.684;2022-08-21T03:58:57;14.00;99.90
3566;DHT22;1797;51.844;7.684;2022-08-21T04:01:24;14.00;99.90
3566;DHT22;1797;51.844;7.684;2022-08-21T04:03:49;13.90;99.90
3566;DHT22;1797;51.844;7.684;2022-08-21T04:06:15;13.90;99.90
3566;DHT22;1797;51.844;7.684;2022-08-21T04:08:40;13.90;99.90
3566;DHT22;1797;51.844;7.684;2022-08-21T04:11:08;13.90;99.90
3566;DHT22;1797;51.844;7.684;2022-08-21T04:13:36;13.90;99.90
3566;DHT22;1797;51.844;7.684;2022-08-21T04:16:02;13.90;99.90
3566;DHT22;1797;51.844;7.684;2022-08-21T04:18:28;13.90;99.90
3566;DHT22;1797;51.844;7.684;2022-08-21T04:20:54;13.90;99.90
3566;DHT22;1797;51.844;7.684;2022-08-21T04:23:21;13.80;99.90
3566;DHT22;1797;51.844;7.684;2022-08-21T04:25:47;13.80;99.90
3566;DHT22;1797;51.844;7.684;2022-08-21T04:28:13;13.80;99.90
3566;DHT22;1797;51.844;7.684;2022-08-21T04:30:38;13.80;99.90
3566;DHT22;1797;51.844;7.684;2022-08-21T04:33:04;13.80;99.90
3566;DHT22;1797;51.844;7.684;2022-08-21T04:35:30;13.90;99.90
3566;DHT22;1797;51.844;7.684;2022-08-21T04:37:56;13.90;99.90
3566;DHT22;1797;51.844;7.684;2022-08-21T04:40:23;13.90;99.90
3566;DHT22;1797;51.844;7.684;2022-08-21T04:42:52;13.80;99.90
3566;DHT22;1797;51.844;7.684;2022-08-21T04:45:23;13.80;99.90
3566;DHT22;1797;51.844;7.684;2022-08-21T04:47:51;13.80;99.90
3566;DHT22;1797;51.844;7.684;2022-08-21T04:50:18;13.80;99.90
3566;DHT22;1797;51.844;7.684;2022-08-21T04:52:46;13.90;99.90
3566;DHT22;1797;51.844;7.684;2022-08-21T04:55:12;13.80;99.90
3566;DHT22;1797;51.844;7.684;2022-08-21T05:02:31;13.90;99.90
3566;DHT22;1797;51.844;7.684;2022-08-21T05:04:59;14.00;99.90
3566;DHT22;1797;51.844;7.684;2022-08-21T05:07:28;13.80;99.90
3566;DHT22;1797;51.844;7.684;2022-08-21T05:14:48;14.10;99.90
3566;DHT22;1797;51.844;7.684;2022-08-21T05:17:14;14.10;99.90
3566;DHT22;1797;51.844;7.684;2022-08-21T05:19:39;14.10;99.90
3566;DHT22;1797;51.844;7.684;2022-08-21T05:22:05;14.10;99.90
3566;DHT22;1797;51.844;7.684;2022-08-21T05:24:31;14.30;99.90
3566;DHT22;1797;51.844;7.684;2022-08-21T05:26:57;14.10;99.90
3566;DHT22;1797;51.844;7.684;2022-08-21T05:29:24;14.20;99.90
3566;DHT22;1797;51.844;7.684;2022-08-21T05:31:49;14.20;99.90
3566;DHT22;1797;51.844;7.684;2022-08-21T05:34:20;14.20;99.90
3566;DHT22;1797;51.844;7.684;2022-08-21T05:36:46;14.20;99.90
3566;DHT22;1797;51.844;7.684;2022-08-21T05:39:12;14.20;99.90
3566;DHT22;1797;51.844;7.684;2022-08-21T05:41:38;14.30;99.90
3566;DHT22;1797;51.844;7.684;2022-08-21T05:44:03;14.30;99.90
3566;DHT22;1797;51.844;7.684;2022-08-21T05:46:29;14.40;99.90
3566;DHT22;1797;51.844;7.684;2022-08-21T05:48:55;14.30;99.90
3566;DHT22;1797;51.844;7.684;2022-08-21T05:51:20;14.30;99.90
3566;DHT22;1797;51.844;7.684;2022-08-21T05:53:46;14.40;99.90
3566;DHT22;1797;51.844;7.684;2022-08-21T05:56:13;14.40;99.90
3566;DHT22;1797;51.844;7.684;2022-08-21T05:58:39;14.50;99.90
3566;DHT22;1797;51.844;7.684;2022-08-21T06:01:06;14.40;99.90
3566;DHT22;1797;51.844;7.684;2022-08-21T06:03:35;14.60;99.90
3566;DHT22;1797;51.844;7.684;2022-08-21T06:06:01;14.60;99.90
3566;DHT22;1797;51.844;7.684;2022-08-21T06:08:27;14.60;99.90
3566;DHT22;1797;51.844;7.684;2022-08-21T06:10:55;14.70;99.90
3566;DHT22;1797;51.844;7.684;2022-08-21T06:13:21;14.80;99.90
3566;DHT22;1797;51.844;7.684;2022-08-21T06:15:48;14.80;99.90
3566;DHT22;1797;51.844;7.684;2022-08-21T06:18:14;14.80;99.90
3566;DHT22;1797;51.844;7.684;2022-08-21T06:23:06;14.90;99.90
3566;DHT22;1797;51.844;7.684;2022-08-21T06:25:32;15.10;99.90
3566;DHT22;1797;51.844;7.684;2022-08-21T06:30:28;15.20;99.90
3566;DHT22;1797;51.844;7.684;2022-08-21T06:32:53;15.30;99.90
3566;DHT22;1797;51.844;7.684;2022-08-21T06:35:19;15.40;99.90
3566;DHT22;1797;51.844;7.684;2022-08-21T06:37:45;15.50;99.90
3566;DHT22;1797;51.844;7.684;2022-08-21T06:40:10;15.60;99.90
3566;DHT22;1797;51.844;7.684;2022-08-21T06:47:29;15.80;99.90
3566;DHT22;1797;51.844;7.684;2022-08-21T06:49:55;17.50;99.90
3566;DHT22;1797;51.844;7.684;2022-08-21T06:52:20;16.40;99.90
3566;DHT22;1797;51.844;7.684;2022-08-21T06:54:46;16.00;99.90
3566;DHT22;1797;51.844;7.684;2022-08-21T06:57:12;15.90;99.90
3566;DHT22;1797;51.844;7.684;2022-08-21T06:59:37;16.20;99.90
3566;DHT22;1797;51.844;7.684;2022-08-21T07:02:03;16.80;99.90
3566;DHT22;1797;51.844;7.684;2022-08-21T07:04:29;16.60;99.90
3566;DHT22;1797;51.844;7.684;2022-08-21T07:06:55;16.80;99.90
3566;DHT22;1797;51.844;7.684;2022-08-21T07:09:20;16.30;99.90
3566;DHT22;1797;51.844;7.684;2022-08-21T07:11:50;16.80;99.90
3566;DHT22;1797;51.844;7.684;2022-08-21T07:14:16;17.30;99.90
3566;DHT22;1797;51.844;7.684;2022-08-21T07:16:42;17.30;99.90
3566;DHT22;1797;51.844;7.684;2022-08-21T07:19:08;17.50;99.90
3566;DHT22;1797;51.844;7.684;2022-08-21T07:21:33;17.60;99.90
3566;DHT22;1797;51.844;7.684;2022-08-21T07:23:59;18.10;99.90
3566;DHT22;1797;51.844;7.684;2022-08-21T07:26:25;18.20;99.90
3566;DHT22;1797;51.844;7.684;2022-08-21T07:28:51;18.40;99.90
3566;DHT22;1797;51.844;7.684;2022-08-21T07:31:19;18.60;99.90
3566;DHT22;1797;51.844;7.684;2022-08-21T07:33:45;18.80;99.90
3566;DHT22;1797;51.844;7.684;2022-08-21T07:36:11;19.00;99.90
3566;DHT22;1797;51.844;7.684;2022-08-21T07:38:37;19.10;99.90
3566;DHT22;1797;51.844;7.684;2022-08-21T07:41:10;19.30;31.70
3566;DHT22;1797;51.844;7.684;2022-08-21T07:43:37;19.60;1.00
3566;DHT22;1797;51.844;7.684;2022-08-21T07:46:02;19.90;99.90
3566;DHT22;1797;51.844;7.684;2022-08-21T07:48:28;20.10;99.90
3566;DHT22;1797;51.844;7.684;2022-08-21T07:53:20;20.40;1.00
3566;DHT22;1797;51.844;7.684;2022-08-21T07:55:46;20.60;99.90
3566;DHT22;1797;51.844;7.684;2022-08-21T07:58:12;20.70;1.00
3566;DHT22;1797;51.844;7.684;2022-08-21T08:05:30;21.70;99.90
3566;DHT22;1797;51.844;7.684;2022-08-21T08:07:57;21.80;99.90
3566;DHT22;1797;51.844;7.684;2022-08-21T08:10:24;21.60;1.00
3566;DHT22;1797;51.844;7.684;2022-08-21T08:12:51;22.20;99.90
3566;DHT22;1797;51.844;7.684;2022-08-21T08:15:23;22.40;1.00
3566;DHT22;1797;51.844;7.684;2022-08-21T08:17:49;22.50;1.00
3566;DHT22;1797;51.844;7.684;2022-08-21T08:20:16;22.60;99.90
3566;DHT22;1797;51.844;7.684;2022-08-21T08:22:42;22.80;1.00
3566;DHT22;1797;51.844;7.684;2022-08-21T08:25:09;22.90;1.00
3566;DHT22;1797;51.844;7.684;2022-08-21T08:27:35;23.00;1.00
3566;DHT22;1797;51.844;7.684;2022-08-21T08:30:00;23.00;1.00
3566;DHT22;1797;51.844;7.684;2022-08-21T08:32:26;23.00;73.70
3566;DHT22;1797;51.844;7.684;2022-08-21T08:39:46;23.40;1.00
3566;DHT22;1797;51.844;7.684;2022-08-21T08:42:18;23.60;1.00
3566;DHT22;1797;51.844;7.684;2022-08-21T08:44:47;23.90;99.90
3566;DHT22;1797;51.844;7.684;2022-08-21T08:52:31;23.90;99.90
3566;DHT22;1797;51.844;7.684;2022-08-21T08:55:08;23.70;99.90
3566;DHT22;1797;51.844;7.684;2022-08-21T08:57:36;24.00;99.90
3566;DHT22;1797;51.844;7.684;2022-08-21T09:15:32;24.70;99.90
3566;DHT22;1797;51.844;7.684;2022-08-21T09:26:20;25.20;99.90
3566;DHT22;1797;51.844;7.684;2022-08-21T09:28:52;25.00;99.90
3566;DHT22;1797;51.844;7.684;2022-08-21T09:31:25;24.60;1.00
3566;DHT22;1797;51.844;7.684;2022-08-21T09:34:00;25.90;1.00
3566;DHT22;1797;51.844;7.684;2022-08-21T09:36:44;24.50;74.60
3566;DHT22;1797;51.844;7.684;2022-08-21T09:39:12;24.80;99.90
3566;DHT22;1797;51.844;7.684;2022-08-21T09:41:38;25.10;99.90
3566;DHT22;1797;51.844;7.684;2022-08-21T09:44:06;25.50;99.90
3566;DHT22;1797;51.844;7.684;2022-08-21T09:46:32;25.80;1.00
3566;DHT22;1797;51.844;7.684;2022-08-21T09:59:38;26.50;1.00
3566;DHT22;1797;51.844;7.684;2022-08-21T10:04:53;27.10;1.00
3566;DHT22;1797;51.844;7.684;2022-08-21T10:07:21;27.10;1.00
3566;DHT22;1797;51.844;7.684;2022-08-21T10:10:08;27.30;1.00
3566;DHT22;1797;51.844;7.684;2022-08-21T10:15:57;27.30;1.00
3566;DHT22;1797;51.844;7.684;2022-08-21T10:18:51;27.30;1.00
3566;DHT22;1797;51.844;7.684;2022-08-21T10:21:28;27.30;1.00
3566;DHT22;1797;51.844;7.684;2022-08-21T10:24:09;27.10;1.00
3566;DHT22;1797;51.844;7.684;2022-08-21T10:27:02;27.00;1.00
3566;DHT22;1797;51.844;7.684;2022-08-21T10:30:02;26.60;1.00
3566;DHT22;1797;51.844;7.684;2022-08-21T10:32:43;26.70;1.00
3566;DHT22;1797;51.844;7.684;2022-08-21T10:35:26;26.80;1.00
3566;DHT22;1797;51.844;7.684;2022-08-21T10:41:17;27.50;1.00
3566;DHT22;1797;51.844;7.684;2022-08-21T10:54:52;28.00;1.00
3566;DHT22;1797;51.844;7.684;2022-08-21T11:00:19;28.60;1.00
3566;DHT22;1797;51.844;7.684;2022-08-21T11:03:05;28.60;1.00
3566;DHT22;1797;51.844;7.684;2022-08-21T11:05:46;28.60;1.00
3566;DHT22;1797;51.844;7.684;2022-08-21T11:08:26;28.40;1.00
3566;DHT22;1797;51.844;7.684;2022-08-21T11:11:10;28.60;1.00
3566;DHT22;1797;51.844;7.684;2022-08-21T11:13:43;28.80;1.00
3566;DHT22;1797;51.844;7.684;2022-08-21T11:16:31;28.70;1.00
3566;DHT22;1797;51.844;7.684;2022-08-21T11:21:52;28.70;1.00
3566;DHT22;1797;51.844;7.684;2022-08-21T11:24:59;28.90;1.00
3566;DHT22;1797;51.844;7.684;2022-08-21T11:27:54;29.30;1.00
3566;DHT22;1797;51.844;7.684;2022-08-21T11:30:24;28.90;99.90
3566;DHT22;1797;51.844;7.684;2022-08-21T11:36:00;29.00;1.00
3566;DHT22;1797;51.844;7.684;2022-08-21T11:39:02;29.60;1.00
3566;DHT22;1797;51.844;7.684;2022-08-21T11:41:42;29.90;99.90
3566;DHT22;1797;51.844;7.684;2022-08-21T11:54:50;29.40;99.90
3566;DHT22;1797;51.844;7.684;2022-08-21T11:57:28;29.60;99.90
3566;DHT22;1797;51.844;7.684;2022-08-21T12:00:05;29.50;99.90
3566;DHT22;1797;51.844;7.684;2022-08-21T12:02:36;29.40;99.90
3566;DHT22;1797;51.844;7.684;2022-08-21T12:05:23;29.40;99.90
3566;DHT22;1797;51.844;7.684;2022-08-21T12:08:09;29.70;99.90
3566;DHT22;1797;51.844;7.684;2022-08-21T12:10:58;29.90;99.90
3566;DHT22;1797;51.844;7.684;2022-08-21T12:13:28;29.80;99.90
3566;DHT22;1797;51.844;7.684;2022-08-21T12:16:06;29.90;99.90
3566;DHT22;1797;51.844;7.684;2022-08-21T12:18:32;29.80;99.90
3566;DHT22;1797;51.844;7.684;2022-08-21T12:21:24;29.90;99.90
3566;DHT22;1797;51.844;7.684;2022-08-21T12:24:18;29.70;99.90
3566;DHT22;1797;51.844;7.684;2022-08-21T12:27:19;29.10;99.90
3566;DHT22;1797;51.844;7.684;2022-08-21T12:29:55;28.80;99.90
3566;DHT22;1797;51.844;7.684;2022-08-21T12:32:30;28.60;99.90
3566;DHT22;1797;51.844;7.684;2022-08-21T12:35:06;28.50;99.90
3566;DHT22;1797;51.844;7.684;2022-08-21T12:37:42;28.20;99.90
3566;DHT22;1797;51.844;7.684;2022-08-21T12:40:22;28.00;99.90
3566;DHT22;1797;51.844;7.684;2022-08-21T12:42:51;28.20;99.90
3566;DHT22;1797;51.844;7.684;2022-08-21T12:45:20;28.20;99.90
3566;DHT22;1797;51.844;7.684;2022-08-21T12:50:32;28.40;99.90
3566;DHT22;1797;51.844;7.684;2022-08-21T12:55:48;28.60;99.90
3566;DHT22;1797;51.844;7.684;2022-08-21T12:58:23;28.90;99.90
3566;DHT22;1797;51.844;7.684;2022-08-21T13:00:57;29.50;99.90
3566;DHT22;1797;51.844;7.684;2022-08-21T13:03:24;29.90;99.90
3566;DHT22;1797;51.844;7.684;2022-08-21T13:05:50;30.10;99.90
3566;DHT22;1797;51.844;7.684;2022-08-21T13:08:19;30.10;99.90
3566;DHT22;1797;51.844;7.684;2022-08-21T13:10:46;30.20;99.90
3566;DHT22;1797;51.844;7.684;2022-08-21T13:13:19;30.20;99.90
3566;DHT22;1797;51.844;7.684;2022-08-21T13:15:46;29.80;99.90
3566;DHT22;1797;51.844;7.684;2022-08-21T13:18:21;29.80;99.90
3566;DHT22;1797;51.844;7.684;2022-08-21T13:20:48;30.10;99.90
3566;DHT22;1797;51.844;7.684;2022-08-21T13:23:25;30.10;99.90
3566;DHT22;1797;51.844;7.684;2022-08-21T13:25:52;29.60;99.90
3566;DHT22;1797;51.844;7.684;2022-08-21T13:28:17;29.00;99.90
3566;DHT22;1797;51.844;7.684;2022-08-21T13:30:49;28.90;1.00
3566;DHT22;1797;51.844;7.684;2022-08-21T13:33:18;29.00;1.00
3566;DHT22;1797;51.844;7.684;2022-08-21T13:40:56;29.70;99.90
3566;DHT22;1797;51.844;7.684;2022-08-21T13:43:27;29.60;99.90
3566;DHT22;1797;51.844;7.684;2022-08-21T13:45:55;29.40;99.90
3566;DHT22;1797;51.844;7.684;2022-08-21T13:48:24;29.30;99.90
3566;DHT22;1797;51.844;7.684;2022-08-21T13:50:51;29.20;99.90
3566;DHT22;1797;51.844;7.684;2022-08-21T13:53:35;29.20;99.90
3566;DHT22;1797;51.844;7.684;2022-08-21T13:56:02;29.40;99.90
3566;DHT22;1797;51.844;7.684;2022-08-21T13:58:42;29.70;99.90
3566;DHT22;1797;51.844;7.684;2022-08-21T14:02:08;29.80;99.90
3566;DHT22;1797;51.844;7.684;2022-08-21T14:04:30;29.50;99.90
3566;DHT22;1797;51.844;7.684;2022-08-21T14:06:57;29.20;99.90
3566;DHT22;1797;51.844;7.684;2022-08-21T14:09:34;28.70;99.90
3566;DHT22;1797;51.844;7.684;2022-08-21T14:12:14;28.00;99.90
3566;DHT22;1797;51.844;7.684;2022-08-21T14:14:41;27.80;99.90
3566;DHT22;1797;51.844;7.684;2022-08-21T14:17:10;27.90;99.90
3566;DHT22;1797;51.844;7.684;2022-08-21T14:25:08;28.40;99.90
3566;DHT22;1797;51.844;7.684;2022-08-21T14:27:58;28.40;99.90
3566;DHT22;1797;51.844;7.684;2022-08-21T14:30:39;28.10;99.90
3566;DHT22;1797;51.844;7.684;2022-08-21T14:33:10;27.80;99.90
3566;DHT22;1797;51.844;7.684;2022-08-21T14:35:36;27.60;99.90
3566;DHT22;1797;51.844;7.684;2022-08-21T14:38:02;27.20;99.90
3566;DHT22;1797;51.844;7.684;2022-08-21T14:40:27;27.00;99.90
3566;DHT22;1797;51.844;7.684;2022-08-21T14:42:54;26.80;99.90
3566;DHT22;1797;51.844;7.684;2022-08-21T14:45:28;26.50;99.90
3566;DHT22;1797;51.844;7.684;2022-08-21T14:47:55;26.30;99.90
3566;DHT22;1797;51.844;7.684;2022-08-21T14:50:21;26.30;99.90
3566;DHT22;1797;51.844;7.684;2022-08-21T14:52:47;26.40;99.90
3566;DHT22;1797;51.844;7.684;2022-08-21T14:55:14;26.20;99.90
3566;DHT22;1797;51.844;7.684;2022-08-21T14:57:41;26.20;99.90
3566;DHT22;1797;51.844;7.684;2022-08-21T15:00:12;26.20;1.00
3566;DHT22;1797;51.844;7.684;2022-08-21T15:02:38;26.20;1.00
3566;DHT22;1797;51.844;7.684;2022-08-21T15:05:04;26.20;1.00
3566;DHT22;1797;51.844;7.684;2022-08-21T15:07:30;26.30;99.90
3566;DHT22;1797;51.844;7.684;2022-08-21T15:09:56;26.30;99.90
3566;DHT22;1797;51.844;7.684;2022-08-21T15:12:22;26.20;99.90
3566;DHT22;1797;51.844;7.684;2022-08-21T15:14:49;26.10;1.00
3566;DHT22;1797;51.844;7.684;2022-08-21T15:17:14;26.10;1.00
3566;DHT22;1797;51.844;7.684;2022-08-21T15:19:40;26.00;99.90
3566;DHT22;1797;51.844;7.684;2022-08-21T15:22:06;26.10;99.90
3566;DHT22;1797;51.844;7.684;2022-08-21T15:24:32;26.00;99.90
3566;DHT22;1797;51.844;7.684;2022-08-21T15:27:00;26.10;99.90
3566;DHT22;1797;51.844;7.684;2022-08-21T15:29:26;26.10;99.90
3566;DHT22;1797;51.844;7.684;2022-08-21T15:31:58;26.00;99.90
3566;DHT22;1797;51.844;7.684;2022-08-21T15:34:26;26.00;99.90
3566;DHT22;1797;51.844;7.684;2022-08-21T15:36:52;25.80;99.90
3566;DHT22;1797;51.844;7.684;2022-08-21T15:39:18;25.70;99.90
3566;DHT22;1797;51.844;7.684;2022-08-21T15:41:44;25.70;99.90
3566;DHT22;1797;51.844;7.684;2022-08-21T15:44:11;25.70;99.90
3566;DHT22;1797;51.844;7.684;2022-08-21T15:46:38;25.60;99.90
3566;DHT22;1797;51.844;7.684;2022-08-21T15:49:04;25.70;99.90
3566;DHT22;1797;51.844;7.684;2022-08-21T15:51:30;25.70;99.90
3566;DHT22;1797;51.844;7.684;2022-08-21T15:53:57;25.80;99.90
3566;DHT22;1797;51.844;7.684;2022-08-21T15:56:28;25.90;99.90
3566;DHT22;1797;51.844;7.684;2022-08-21T15:59:00;26.00;99.90
3566;DHT22;1797;51.844;7.684;2022-08-21T16:01:27;26.10;99.90
3566;DHT22;1797;51.844;7.684;2022-08-21T16:03:53;26.20;99.90
3566;DHT22;1797;51.844;7.684;2022-08-21T16:06:20;26.20;99.90
3566;DHT22;1797;51.844;7.684;2022-08-21T16:08:45;26.30;99.90
3566;DHT22;1797;51.844;7.684;2022-08-21T16:13:43;26.10;99.90
3566;DHT22;1797;51.844;7.684;2022-08-21T16:16:11;26.10;99.90
3566;DHT22;1797;51.844;7.684;2022-08-21T16:18:38;26.30;99.90
3566;DHT22;1797;51.844;7.684;2022-08-21T16:21:05;26.40;99.90
3566;DHT22;1797;51.844;7.684;2022-08-21T16:23:32;26.30;99.90
3566;DHT22;1797;51.844;7.684;2022-08-21T16:26:01;26.30;99.90
3566;DHT22;1797;51.844;7.684;2022-08-21T16:28:27;26.20;99.90
3566;DHT22;1797;51.844;7.684;2022-08-21T16:30:53;26.20;99.90
3566;DHT22;1797;51.844;7.684;2022-08-21T16:33:38;26.10;99.90
3566;DHT22;1797;51.844;7.684;2022-08-21T16:36:05;26.00;99.90
3566;DHT22;1797;51.844;7.684;2022-08-21T16:41:56;25.90;99.90
3566;DHT22;1797;51.844;7.684;2022-08-21T16:44:22;25.80;1.00
3566;DHT22;1797;51.844;7.684;2022-08-21T16:46:48;25.80;1.00
3566;DHT22;1797;51.844;7.684;2022-08-21T16:49:14;25.70;99.90
3566;DHT22;1797;51.844;7.684;2022-08-21T16:51:39;25.60;99.90
3566;DHT22;1797;51.844;7.684;2022-08-21T16:54:05;25.60;99.90
3566;DHT22;1797;51.844;7.684;2022-08-21T16:56:31;25.50;99.90
3566;DHT22;1797;51.844;7.684;2022-08-21T16:58:57;25.40;99.90
3566;DHT22;1797;51.844;7.684;2022-08-21T17:01:26;25.30;99.90
3566;DHT22;1797;51.844;7.684;2022-08-21T17:03:52;25.20;1.00
3566;DHT22;1797;51.844;7.684;2022-08-21T17:06:19;25.10;1.00
3566;DHT22;1797;51.844;7.684;2022-08-21T17:08:46;25.10;1.00
3566;DHT22;1797;51.844;7.684;2022-08-21T17:11:20;25.00;1.00
3566;DHT22;1797;51.844;7.684;2022-08-21T17:13:47;25.00;1.00
3566;DHT22;1797;51.844;7.684;2022-08-21T17:16:14;24.90;1.00
3566;DHT22;1797;51.844;7.684;2022-08-21T17:18:41;25.00;1.00
3566;DHT22;1797;51.844;7.684;2022-08-21T17:21:06;24.90;1.00
3566;DHT22;1797;51.844;7.684;2022-08-21T17:23:32;24.80;1.00
3566;DHT22;1797;51.844;7.684;2022-08-21T17:25:59;24.80;1.00
3566;DHT22;1797;51.844;7.684;2022-08-21T17:28:28;24.60;1.00
3566;DHT22;1797;51.844;7.684;2022-08-21T17:30:56;24.70;1.00
3566;DHT22;1797;51.844;7.684;2022-08-21T17:33:23;24.70;1.00
3566;DHT22;1797;51.844;7.684;2022-08-21T17:35:51;24.60;1.00
3566;DHT22;1797;51.844;7.684;2022-08-21T17:38:16;24.50;1.00
3566;DHT22;1797;51.844;7.684;2022-08-21T17:40:43;24.40;1.00
3566;DHT22;1797;51.844;7.684;2022-08-21T17:43:10;24.40;1.00
3566;DHT22;1797;51.844;7.684;2022-08-21T17:45:36;24.30;1.00
3566;DHT22;1797;51.844;7.684;2022-08-21T17:48:02;24.30;1.00
3566;DHT22;1797;51.844;7.684;2022-08-21T17:50:28;24.30;1.00
3566;DHT22;1797;51.844;7.684;2022-08-21T17:52:53;24.20;1.00
3566;DHT22;1797;51.844;7.684;2022-08-21T17:55:19;24.10;1.00
3566;DHT22;1797;51.844;7.684;2022-08-21T17:57:46;24.00;1.00
3566;DHT22;1797;51.844;7.684;2022-08-21T18:00:16;24.00;1.00
3566;DHT22;1797;51.844;7.684;2022-08-21T18:02:44;23.90;1.00
3566;DHT22;1797;51.844;7.684;2022-08-21T18:05:12;23.80;1.00
3566;DHT22;1797;51.844;7.684;2022-08-21T18:07:39;23.80;1.00
3566;DHT22;1797;51.844;7.684;2022-08-21T18:10:08;23.70;1.00
3566;DHT22;1797;51.844;7.684;2022-08-21T18:12:37;23.60;1.00
3566;DHT22;1797;51.844;7.684;2022-08-21T18:15:04;23.50;20.80
3566;DHT22;1797;51.844;7.684;2022-08-21T18:17:30;23.40;66.30
3566;DHT22;1797;51.844;7.684;2022-08-21T18:19:58;23.30;81.60
3566;DHT22;1797;51.844;7.684;2022-08-21T18:22:24;23.30;99.90
3566;DHT22;1797;51.844;7.684;2022-08-21T18:24:50;23.10;99.90
3566;DHT22;1797;51.844;7.684;2022-08-21T18:27:16;23.00;99.90
3566;DHT22;1797;51.844;7.684;2022-08-21T18:29:43;22.90;99.90